createdAt,value
2018-04-17T00:02:06.357Z,44.67
2018-04-17T00:04:36.239Z,42.20
2018-04-17T00:07:05.362Z,39.85
2018-04-17T00:09:34.476Z,42.97
2018-04-17T00:12:03.564Z,42.42
2018-04-17T00:14:32.662Z,42.27
2018-04-17T00:17:01.773Z,41.63
2018-04-17T00:19:30.899Z,40.63
2018-04-17T00:22:00.358Z,41.50
2018-04-17T00:24:29.463Z,41.90
2018-04-17T00:26:58.531Z,42.90
2018-04-17T00:29:27.645Z,43.47
2018-04-17T00:31:56.734Z,44.60
2018-04-17T00:34:25.848Z,44.70
2018-04-17T00:36:54.972Z,40.05
2018-04-17T00:39:24.085Z,44.50
2018-04-17T00:41:53.173Z,41.88
2018-04-17T00:44:22.393Z,42.50
2018-04-17T00:46:51.541Z,41.85
2018-04-17T00:49:20.668Z,40.80
2018-04-17T00:51:49.861Z,42.13
2018-04-17T00:54:18.951Z,43.30
2018-04-17T00:56:48.147Z,42.15
2018-04-17T00:59:18.085Z,43.33
2018-04-17T01:01:47.208Z,43.03
2018-04-17T01:04:16.556Z,41.92
2018-04-17T01:06:45.673Z,44.47
2018-04-17T01:09:14.792Z,42.45
2018-04-17T01:11:44.647Z,44.28
2018-04-17T01:14:13.744Z,44.65
2018-04-17T01:16:43.583Z,48.03
2018-04-17T01:19:12.781Z,46.78
2018-04-17T01:21:42.690Z,46.88
2018-04-17T01:24:11.808Z,48.65
2018-04-17T01:26:41.655Z,45.38
2018-04-17T01:29:11.563Z,46.37
2018-04-17T01:31:40.676Z,46.22
2018-04-17T01:34:10.583Z,48.10
2018-04-17T01:36:39.708Z,47.28
2018-04-17T01:39:08.834Z,47.42
2018-04-17T01:41:37.948Z,45.83
2018-04-17T01:44:07.828Z,49.35
2018-04-17T01:46:37.044Z,50.40
2018-04-17T01:49:06.483Z,51.28
2018-04-17T01:51:35.798Z,52.72
2018-04-17T01:54:04.924Z,54.58
2018-04-17T01:56:34.046Z,56.05
2018-04-17T01:59:03.896Z,56.78
2018-04-17T02:01:33.084Z,52.78
2018-04-17T02:04:02.935Z,47.92
2018-04-17T02:06:32.024Z,49.70
2018-04-17T02:09:01.899Z,48.85
2018-04-17T02:11:31.792Z,47.95
2018-04-17T02:14:01.674Z,47.60
2018-04-17T02:16:30.787Z,45.65
2018-04-17T02:18:59.896Z,46.70
2018-04-17T02:21:29.048Z,46.80
2018-04-17T02:23:58.893Z,48.13
2018-04-17T02:26:27.998Z,47.08
2018-04-17T02:28:57.070Z,49.22
2018-04-17T02:31:26.224Z,48.05
2018-04-17T02:33:55.371Z,48.55
2018-04-17T02:36:24.716Z,47.00
2018-04-17T02:38:53.828Z,48.10
2018-04-17T02:41:22.932Z,46.35
2018-04-17T02:43:52.015Z,47.20
2018-04-17T02:46:21.118Z,48.15
2018-04-17T02:48:50.378Z,50.70
2018-04-17T02:51:20.275Z,48.05
2018-04-17T02:53:49.462Z,47.08
2018-04-17T02:56:18.575Z,48.72
2018-04-17T02:58:47.683Z,49.03
2018-04-17T03:01:16.803Z,48.55
2018-04-17T03:03:45.912Z,49.45
2018-04-17T03:06:14.982Z,48.05
2018-04-17T03:08:45.017Z,50.58
2018-04-17T03:11:14.935Z,50.22
2018-04-17T03:13:44.799Z,48.42
2018-04-17T03:16:13.946Z,50.12
2018-04-17T03:18:43.057Z,49.20
2018-04-17T03:21:12.156Z,47.78
2018-04-17T03:23:42.008Z,50.33
2018-04-17T03:26:11.148Z,50.08
2018-04-17T03:28:40.975Z,49.50
2018-04-17T03:31:10.814Z,50.50
2018-04-17T03:33:39.976Z,48.58
2018-04-17T03:36:09.043Z,49.13
2018-04-17T03:38:38.172Z,48.50
2018-04-17T03:41:07.273Z,53.35
2018-04-17T03:43:36.432Z,51.00
2018-04-17T03:46:05.507Z,53.35
2018-04-17T03:48:34.575Z,50.25
2018-04-17T03:51:04.420Z,52.80
2018-04-17T03:53:33.491Z,51.53
2018-04-17T03:56:02.603Z,51.55
2018-04-17T03:58:31.740Z,49.83
2018-04-17T04:01:01.579Z,52.80
2018-04-17T04:03:30.685Z,54.08
2018-04-17T04:05:59.824Z,50.63
2018-04-17T04:08:28.938Z,55.40
2018-04-17T04:10:58.015Z,53.17
2018-04-17T04:13:27.084Z,53.83
2018-04-17T04:15:56.184Z,53.00
2018-04-17T04:18:43.118Z,55.40
2018-04-17T04:21:30.144Z,55.70
2018-04-17T04:24:17.060Z,54.92
2018-04-17T04:26:46.130Z,51.25
2018-04-17T04:29:15.246Z,54.08
2018-04-17T04:31:44.370Z,55.63
2018-04-17T04:34:13.443Z,53.20
2018-04-17T04:36:43.292Z,52.25
2018-04-17T04:39:12.354Z,53.03
2018-04-17T04:41:41.480Z,53.95
2018-04-17T04:44:10.615Z,54.90
2018-04-17T04:46:40.455Z,54.00
2018-04-17T04:49:09.575Z,53.85
2018-04-17T04:51:38.723Z,49.28
2018-04-17T04:54:07.824Z,49.97
2018-04-17T04:56:37.003Z,50.88
2018-04-17T04:59:06.100Z,49.30
2018-04-17T05:01:36.001Z,51.95
2018-04-17T05:04:05.087Z,51.72
2018-04-17T05:06:34.245Z,49.22
2018-04-17T05:09:04.095Z,53.05
2018-04-17T05:11:33.171Z,49.05
2018-04-17T05:14:03.031Z,49.33
2018-04-17T05:16:32.141Z,49.30
2018-04-17T05:19:01.231Z,50.38
2018-04-17T05:21:30.345Z,48.10
2018-04-17T05:23:59.465Z,46.50
2018-04-17T05:26:28.548Z,47.67
2018-04-17T05:28:58.471Z,48.42
2018-04-17T05:31:27.551Z,48.87
2018-04-17T05:33:56.639Z,50.70
2018-04-17T05:36:25.754Z,49.38
2018-04-17T05:38:54.843Z,47.88
2018-04-17T05:41:23.938Z,48.15
2018-04-17T05:43:53.828Z,48.00
2018-04-17T05:46:23.308Z,46.83
2018-04-17T05:48:52.613Z,46.22
2018-04-17T05:51:21.696Z,47.03
2018-04-17T05:53:51.630Z,46.47
2018-04-17T05:56:21.525Z,46.57
2018-04-17T05:58:50.611Z,46.78
2018-04-17T06:01:19.698Z,45.80
2018-04-17T06:03:48.813Z,48.78
2018-04-17T06:06:17.934Z,46.65
2018-04-17T06:08:47.033Z,45.60
2018-04-17T06:11:16.434Z,48.10
2018-04-17T06:13:45.583Z,48.90
2018-04-17T06:16:14.881Z,48.20
2018-04-17T06:18:43.997Z,45.07
2018-04-17T06:21:13.121Z,49.00
2018-04-17T06:23:42.207Z,46.40
2018-04-17T06:26:11.376Z,47.53
2018-04-17T06:28:40.493Z,48.83
2018-04-17T06:31:09.617Z,49.33
2018-04-17T06:33:40.353Z,50.83
2018-04-17T06:36:09.591Z,50.53
2018-04-17T06:38:39.467Z,51.03
2018-04-17T06:41:08.604Z,52.27
2018-04-17T06:43:37.757Z,52.67
2018-04-17T06:46:06.843Z,52.40
2018-04-17T06:48:36.723Z,52.77
2018-04-17T06:51:05.807Z,50.90
2018-04-17T06:53:35.064Z,51.03
2018-04-17T06:56:04.177Z,51.30
2018-04-17T06:58:33.287Z,52.83
2018-04-17T07:01:03.288Z,51.60
2018-04-17T07:03:32.424Z,50.37
2018-04-17T07:06:01.549Z,52.30
2018-04-17T07:08:30.657Z,50.00
2018-04-17T07:10:59.940Z,49.50
2018-04-17T07:13:29.013Z,49.90
2018-04-17T07:15:58.099Z,49.23
2018-04-17T07:18:27.184Z,52.33
2018-04-17T07:20:56.292Z,49.97
2018-04-17T07:23:25.366Z,48.07
2018-04-17T07:25:54.456Z,49.30
2018-04-17T07:28:24.294Z,50.00
2018-04-17T07:30:54.145Z,43.97
2018-04-17T07:33:23.257Z,43.50
2018-04-17T07:35:52.342Z,39.67
2018-04-17T07:38:22.192Z,37.70
2018-04-17T07:40:51.301Z,38.33
2018-04-17T07:43:20.482Z,39.97
2018-04-17T07:45:50.323Z,32.70
2018-04-17T07:48:37.216Z,33.10
2018-04-17T07:51:06.356Z,31.10
2018-04-17T07:53:35.450Z,32.37
2018-04-17T07:56:04.854Z,30.20
2018-04-17T07:58:33.931Z,31.33
2018-04-17T08:01:03.238Z,28.03
2018-04-17T08:03:32.344Z,30.20
2018-04-17T08:06:01.458Z,30.50
2018-04-17T08:08:30.589Z,28.17
2018-04-17T08:10:59.752Z,26.17
2018-04-17T08:13:29.601Z,27.00
2018-04-17T08:15:58.685Z,23.10
2018-04-17T08:18:28.529Z,20.60
2018-04-17T08:20:58.371Z,21.60
2018-04-17T08:23:27.459Z,18.30
2018-04-17T08:25:57.299Z,18.10
2018-04-17T08:28:26.454Z,18.13
2018-04-17T08:30:55.589Z,17.33
2018-04-17T08:33:25.484Z,16.97
2018-04-17T08:35:54.663Z,15.70
2018-04-17T08:38:23.799Z,14.57
2018-04-17T08:40:52.920Z,14.73
2018-04-17T08:43:22.005Z,12.00
2018-04-17T08:45:51.121Z,11.70
2018-04-17T08:48:20.234Z,10.17
2018-04-17T08:50:49.315Z,9.50
2018-04-17T08:53:19.237Z,11.67
2018-04-17T08:55:48.416Z,9.77
2018-04-17T08:58:17.546Z,11.40
2018-04-17T09:00:46.712Z,13.30
2018-04-17T09:03:15.856Z,12.80
2018-04-17T09:05:44.977Z,10.77
2018-04-17T09:08:15.098Z,12.30
2018-04-17T09:10:44.212Z,11.30
2018-04-17T09:13:13.287Z,9.13
2018-04-17T09:15:42.400Z,9.37
2018-04-17T09:18:11.507Z,8.70
2018-04-17T09:20:40.614Z,8.90
2018-04-17T09:23:09.726Z,9.40
2018-04-17T09:25:38.853Z,8.83
2018-04-17T09:28:08.726Z,9.20
2018-04-17T09:30:38.573Z,9.23
2018-04-17T09:33:07.965Z,9.20
2018-04-17T09:35:37.074Z,8.27
2018-04-17T09:38:06.951Z,11.23
2018-04-17T09:40:36.053Z,7.10
2018-04-17T09:43:05.225Z,8.53
2018-04-17T09:45:35.077Z,7.10
2018-04-17T09:48:04.245Z,6.40
2018-04-17T09:50:33.405Z,6.33
2018-04-17T09:53:03.316Z,5.10
2018-04-17T09:55:33.180Z,5.77
2018-04-17T09:58:02.316Z,4.93
2018-04-17T10:00:37.015Z,4.90
2018-04-17T10:03:06.171Z,5.03
2018-04-17T10:05:35.411Z,4.87
2018-04-17T10:08:05.262Z,3.90
2018-04-17T10:10:35.099Z,5.13
2018-04-17T10:13:04.205Z,5.07
2018-04-17T10:15:33.276Z,5.20
2018-04-17T10:18:02.404Z,4.30
2018-04-17T10:20:32.282Z,5.47
2018-04-17T10:23:01.451Z,4.70
2018-04-17T10:25:31.291Z,4.67
2018-04-17T10:28:00.445Z,5.30
2018-04-17T10:30:30.291Z,4.13
2018-04-17T10:32:59.411Z,4.53
2018-04-17T10:35:28.480Z,4.90
2018-04-17T10:40:32.769Z,5.27
2018-04-17T10:43:01.891Z,5.03
2018-04-17T10:45:30.979Z,5.90
2018-04-17T10:48:00.156Z,6.70
2018-04-17T10:50:29.264Z,5.50
2018-04-17T10:52:58.702Z,5.53
2018-04-17T10:55:27.834Z,5.40
2018-04-17T10:57:56.964Z,5.07
2018-04-17T11:00:26.075Z,5.23
2018-04-17T11:02:55.151Z,5.80
2018-04-17T11:05:24.293Z,5.83
2018-04-17T11:07:54.188Z,6.03
2018-04-17T11:10:23.310Z,4.90
2018-04-17T11:12:52.399Z,5.10
2018-04-17T11:15:21.496Z,5.80
2018-04-17T11:17:50.607Z,5.13
2018-04-17T11:20:19.691Z,4.80
2018-04-17T11:22:49.620Z,5.23
2018-04-17T11:25:19.529Z,4.90
2018-04-17T11:27:48.602Z,5.60
2018-04-17T11:30:17.662Z,4.70
2018-04-17T11:32:46.797Z,4.30
2018-04-17T11:35:15.867Z,5.40
2018-04-17T11:37:44.990Z,6.37
2018-04-17T11:40:14.088Z,5.10
2018-04-17T11:42:43.167Z,4.37
2018-04-17T11:45:12.248Z,3.80
2018-04-17T11:47:42.112Z,4.67
2018-04-17T11:50:11.193Z,4.60
2018-04-17T11:52:40.285Z,3.63
2018-04-17T11:55:10.195Z,4.50
2018-04-17T11:57:39.392Z,5.07
2018-04-17T12:00:08.496Z,4.20
2018-04-17T12:02:37.631Z,4.20
2018-04-17T12:05:06.713Z,3.40
2018-04-17T12:07:35.784Z,3.77
2018-04-17T12:10:04.858Z,4.30
2018-04-17T12:12:33.995Z,4.00
2018-04-17T12:15:03.863Z,6.00
2018-04-17T12:17:33.053Z,4.63
2018-04-17T12:20:02.165Z,4.57
2018-04-17T12:22:31.265Z,4.80
2018-04-17T12:25:00.418Z,4.20
2018-04-17T12:27:29.491Z,4.70
2018-04-17T12:29:58.647Z,3.77
2018-04-17T12:32:27.752Z,3.67
2018-04-17T12:34:56.877Z,4.13
2018-04-17T12:37:25.980Z,3.90
2018-04-17T12:39:55.117Z,3.37
2018-04-17T12:42:25.005Z,4.67
2018-04-17T12:44:54.107Z,5.40
2018-04-17T12:47:23.180Z,4.47
2018-04-17T12:49:53.011Z,4.03
2018-04-17T12:52:22.184Z,4.70
2018-04-17T12:54:51.288Z,4.67
2018-04-17T12:57:20.407Z,3.77
2018-04-17T12:59:49.503Z,4.00
2018-04-17T13:02:18.572Z,2.93
2018-04-17T13:04:47.664Z,3.97
2018-04-17T13:07:16.740Z,5.27
2018-04-17T13:09:45.807Z,4.73
2018-04-17T13:12:14.905Z,3.90
2018-04-17T13:14:43.979Z,3.20
2018-04-17T13:17:13.044Z,3.43
2018-04-17T13:19:42.155Z,3.37
2018-04-17T13:22:11.424Z,4.20
2018-04-17T13:24:40.561Z,3.33
2018-04-17T13:27:09.659Z,3.20
2018-04-17T13:29:39.490Z,4.43
2018-04-17T13:32:09.324Z,3.30
2018-04-17T13:34:38.430Z,3.73
2018-04-17T13:37:08.287Z,3.43
2018-04-17T13:39:38.156Z,3.17
2018-04-17T13:42:07.372Z,3.80
2018-04-17T13:44:36.524Z,3.30
2018-04-17T13:47:05.621Z,3.30
2018-04-17T13:49:35.490Z,3.03
2018-04-17T13:52:04.565Z,3.60
2018-04-17T13:54:33.623Z,3.63
2018-04-17T13:57:02.755Z,3.27
2018-04-17T13:59:31.859Z,2.90
2018-04-17T14:02:00.964Z,3.40
2018-04-17T14:04:30.047Z,3.30
2018-04-17T14:06:59.111Z,3.03
2018-04-17T14:09:28.981Z,3.47
2018-04-17T14:11:58.148Z,3.30
2018-04-17T14:14:27.966Z,2.93
2018-04-17T14:16:57.803Z,3.40
2018-04-17T14:19:27.699Z,3.03
2018-04-17T14:21:56.800Z,3.30
2018-04-17T14:24:25.897Z,2.80
2018-04-17T14:26:55.437Z,2.87
2018-04-17T14:29:24.540Z,2.70
2018-04-17T14:31:53.678Z,2.80
2018-04-17T14:34:22.784Z,2.80
2018-04-17T14:36:51.893Z,2.50
2018-04-17T14:39:21.938Z,2.80
2018-04-17T14:41:51.035Z,3.17
2018-04-17T14:44:20.111Z,3.10
2018-04-17T14:46:49.241Z,3.47
2018-04-17T14:49:18.314Z,3.00
2018-04-17T14:51:47.384Z,2.43
2018-04-17T14:54:16.487Z,2.70
2018-04-17T14:56:45.622Z,3.70
2018-04-17T14:59:15.564Z,3.07
2018-04-17T15:01:44.679Z,2.77
2018-04-17T15:04:13.756Z,2.40
2018-04-17T15:06:42.852Z,2.80
2018-04-17T15:09:11.955Z,3.23
2018-04-17T15:11:41.027Z,2.80
2018-04-17T15:14:10.191Z,2.37
2018-04-17T15:16:39.270Z,3.10
2018-04-17T15:19:08.445Z,3.57
2018-04-17T15:21:37.590Z,3.40
2018-04-17T15:24:06.703Z,3.10
2018-04-17T15:26:35.777Z,2.77
2018-04-17T15:29:04.848Z,3.40
2018-04-17T15:31:33.927Z,2.43
2018-04-17T15:34:03.029Z,3.00
2018-04-17T15:36:32.100Z,2.90
2018-04-17T15:39:01.931Z,3.27
2018-04-17T15:41:31.821Z,3.07
2018-04-17T15:44:00.932Z,3.10
2018-04-17T15:46:30.015Z,3.37
2018-04-17T15:48:59.108Z,2.70
2018-04-17T15:51:28.951Z,2.80
2018-04-17T15:53:58.048Z,2.87
2018-04-17T15:56:27.132Z,2.73
2018-04-17T15:58:56.246Z,2.37
2018-04-17T16:01:26.118Z,3.60
2018-04-17T16:03:55.188Z,3.30
2018-04-17T16:06:25.085Z,3.10
2018-04-17T16:08:54.150Z,2.87
2018-04-17T16:11:23.223Z,2.20
2018-04-17T16:13:52.291Z,2.73
2018-04-17T16:16:21.383Z,2.73
2018-04-17T16:18:50.521Z,2.97
2018-04-17T16:21:19.628Z,2.70
2018-04-17T16:23:48.765Z,2.93
2018-04-17T16:26:17.881Z,2.80
2018-04-17T16:28:47.044Z,2.40
2018-04-17T16:31:16.144Z,2.87
2018-04-17T16:33:45.298Z,3.13
2018-04-17T16:36:14.407Z,2.60
2018-04-17T16:38:43.483Z,2.80
2018-04-17T16:41:12.591Z,2.70
2018-04-17T16:43:41.667Z,2.77
2018-04-17T16:46:10.802Z,2.70
2018-04-17T16:48:39.908Z,2.40
2018-04-17T16:51:09.509Z,3.20
2018-04-17T16:53:38.555Z,2.40
2018-04-17T16:56:07.619Z,2.30
2018-04-17T16:58:36.748Z,2.33
2018-04-17T17:01:06.615Z,2.27
2018-04-17T17:03:35.683Z,2.50
2018-04-17T17:06:05.531Z,3.20
2018-04-17T17:08:34.624Z,3.07
2018-04-17T17:11:04.619Z,2.03
2018-04-17T17:13:33.695Z,3.00
2018-04-17T17:16:02.820Z,2.70
2018-04-17T17:18:31.960Z,2.03
2018-04-17T17:21:01.069Z,2.60
2018-04-17T17:23:30.219Z,2.43
2018-04-17T17:25:59.444Z,2.70
2018-04-17T17:28:28.531Z,2.67
2018-04-17T17:30:58.367Z,2.23
2018-04-17T17:33:28.232Z,3.60
2018-04-17T17:35:57.312Z,3.33
2018-04-17T17:38:26.411Z,5.13
2018-04-17T17:40:55.523Z,3.60
2018-04-17T17:43:24.654Z,4.00
2018-04-17T17:45:53.793Z,3.40
2018-04-17T17:48:22.901Z,2.90
2018-04-17T17:50:51.972Z,3.40
2018-04-17T17:53:21.067Z,2.43
2018-04-17T17:55:50.899Z,3.00
2018-04-17T17:58:20.757Z,3.57
2018-04-17T18:00:49.834Z,3.10
2018-04-17T18:03:19.696Z,3.10
2018-04-17T18:05:48.935Z,3.40
2018-04-17T18:08:18.001Z,3.00
2018-04-17T18:10:47.126Z,3.47
2018-04-17T18:13:16.197Z,3.60
2018-04-17T18:15:45.340Z,4.70
2018-04-17T18:18:14.437Z,3.70
2018-04-17T18:20:43.616Z,5.13
2018-04-17T18:23:12.715Z,5.00
2018-04-17T18:25:41.816Z,4.63
2018-04-17T18:28:10.927Z,3.70
2018-04-17T18:30:39.999Z,5.20
2018-04-17T18:33:09.236Z,5.57
2018-04-17T18:35:38.389Z,4.53
2018-04-17T18:38:07.539Z,3.83
2018-04-17T18:40:36.610Z,4.17
2018-04-17T18:43:05.708Z,4.43
2018-04-17T18:45:34.854Z,4.20
2018-04-17T18:48:03.960Z,4.37
2018-04-17T18:50:33.799Z,5.10
2018-04-17T18:53:02.872Z,4.40
2018-04-17T18:55:31.982Z,4.53
2018-04-17T18:58:01.100Z,5.00
2018-04-17T19:00:30.986Z,4.40
2018-04-17T19:03:00.059Z,4.23
2018-04-17T19:05:29.898Z,4.43
2018-04-17T19:07:58.972Z,4.60
2018-04-17T19:10:28.085Z,6.03
2018-04-17T19:12:57.923Z,4.77
2018-04-17T19:15:27.802Z,5.60
2018-04-17T19:17:56.910Z,4.57
2018-04-17T19:20:26.014Z,5.90
2018-04-17T19:22:55.124Z,4.87
2018-04-17T19:25:24.203Z,4.80
2018-04-17T19:27:54.131Z,5.60
2018-04-17T19:30:23.199Z,4.20
2018-04-17T19:32:52.299Z,4.80
2018-04-17T19:35:21.402Z,5.60
2018-04-17T19:37:50.501Z,6.00
2018-04-17T19:40:19.662Z,4.97
2018-04-17T19:42:48.773Z,5.60
2018-04-17T19:45:17.847Z,5.20
2018-04-17T19:47:46.922Z,4.40
2018-04-17T19:50:16.000Z,5.57
2018-04-17T19:52:45.157Z,5.10
2018-04-17T19:55:14.325Z,5.17
2018-04-17T19:57:44.201Z,5.97
2018-04-17T20:00:13.279Z,6.53
2018-04-17T20:02:43.152Z,6.90
2018-04-17T20:05:13.032Z,6.70
2018-04-17T20:07:42.978Z,8.60
2018-04-17T20:10:12.058Z,7.50
2018-04-17T20:12:41.277Z,9.83
2018-04-17T20:15:11.131Z,9.93
2018-04-17T20:17:40.287Z,10.70
2018-04-17T20:20:09.476Z,13.03
2018-04-17T20:22:38.569Z,12.63
2018-04-17T20:25:07.673Z,11.97
2018-04-17T20:27:36.755Z,13.17
2018-04-17T20:30:05.835Z,13.80
2018-04-17T20:32:34.913Z,13.43
2018-04-17T20:35:04.025Z,14.27
2018-04-17T20:37:33.107Z,15.37
2018-04-17T20:40:02.985Z,15.40
2018-04-17T20:42:32.096Z,14.97
2018-04-17T20:45:01.209Z,14.30
2018-04-17T20:47:31.068Z,14.30
2018-04-17T20:50:00.173Z,15.03
2018-04-17T20:52:29.325Z,17.60
2018-04-17T20:54:58.484Z,18.73
2018-04-17T20:57:27.568Z,17.87
2018-04-17T20:59:56.761Z,18.13
2018-04-17T21:02:25.855Z,16.90
2018-04-17T21:04:55.735Z,15.73
2018-04-17T21:07:24.894Z,16.03
2018-04-17T21:09:54.011Z,14.10
2018-04-17T21:12:23.182Z,15.63
2018-04-17T21:14:52.283Z,14.63
2018-04-17T21:17:21.362Z,14.40
2018-04-17T21:19:50.452Z,13.50
2018-04-17T21:22:20.393Z,12.23
2018-04-17T21:24:49.544Z,11.17
2018-04-17T21:27:18.660Z,10.50
2018-04-17T21:29:47.771Z,8.77
2018-04-17T21:32:17.653Z,8.77
2018-04-17T21:34:46.872Z,6.53
2018-04-17T21:37:15.985Z,6.13
2018-04-17T21:39:45.095Z,7.07
2018-04-17T21:42:14.216Z,8.00
2018-04-17T21:44:43.316Z,8.17
2018-04-17T21:47:12.393Z,11.03
2018-04-17T21:49:42.239Z,9.70
2018-04-17T21:52:11.323Z,9.90
2018-04-17T21:54:40.408Z,11.20
2018-04-17T21:57:09.498Z,12.70
2018-04-17T21:59:38.957Z,13.90
2018-04-17T22:02:08.088Z,14.07
2018-04-17T22:04:38.000Z,15.77
2018-04-17T22:07:07.861Z,18.70
2018-04-17T22:09:36.942Z,16.63
2018-04-17T22:12:06.048Z,17.60
2018-04-17T22:14:35.136Z,16.53
2018-04-17T22:17:04.223Z,16.40
2018-04-17T22:19:33.299Z,14.80
2018-04-17T22:22:03.205Z,13.90
2018-04-17T22:24:32.311Z,13.40
2018-04-17T22:27:01.467Z,11.00
2018-04-17T22:29:30.544Z,10.73
2018-04-17T22:31:59.904Z,9.67
2018-04-17T22:34:29.017Z,10.33
2018-04-17T22:36:58.148Z,9.30
2018-04-17T22:39:27.288Z,8.97
2018-04-17T22:41:56.397Z,9.23
2018-04-17T22:44:26.277Z,8.50
2018-04-17T22:46:56.277Z,8.20
2018-04-17T22:49:26.382Z,8.43
2018-04-17T22:51:55.460Z,9.23
2018-04-17T22:54:24.547Z,9.43
2018-04-17T22:56:53.622Z,10.07
2018-04-17T22:59:22.908Z,9.53
2018-04-17T23:01:52.024Z,10.82
2018-04-17T23:04:21.118Z,10.40
2018-04-17T23:06:50.243Z,9.75
2018-04-17T23:09:19.331Z,10.85
2018-04-17T23:11:48.505Z,10.50
2018-04-17T23:14:17.620Z,10.87
2018-04-17T23:16:47.081Z,8.63
2018-04-17T23:19:16.265Z,9.60
2018-04-17T23:21:45.391Z,10.20
2018-04-17T23:24:14.481Z,10.23
2018-04-17T23:26:43.595Z,9.65
2018-04-17T23:29:12.713Z,10.93
2018-04-17T23:31:41.805Z,10.75
2018-04-17T23:34:10.894Z,11.15
2018-04-17T23:36:40.780Z,10.95
2018-04-17T23:39:09.945Z,11.30
2018-04-17T23:41:39.860Z,12.10
2018-04-17T23:44:09.797Z,12.82
2018-04-17T23:46:39.684Z,11.82
2018-04-17T23:49:08.770Z,10.20
2018-04-17T23:51:38.360Z,11.07
2018-04-17T23:54:08.250Z,13.60
2018-04-17T23:56:38.137Z,13.65
2018-04-17T23:59:07.271Z,15.02
